Time;durP1;ratioP1;P1;durP2;ratioP2;P2;SDS_P1;SDS_P2;PMS_P1;PMS_P2;Temp;Humidity;BMP_temperature;BMP_pressure;BME280_temperature;BME280_humidity;BME280_pressure;Samples;Min_cycle;Max_cycle;Signal;HPM_P1;HPM_P2
2022/12/03 00:01:30;;;;;;;22.27;13.43;;;3.70;75.80;;;;;;5029276;28;20097;-67
2022/12/03 00:03:56;;;;;;;25.90;14.85;;;3.80;75.90;;;;;;5029616;28;20477;-67
2022/12/03 00:06:22;;;;;;;26.13;14.85;;;3.70;75.50;;;;;;5030865;28;20028;-66
2022/12/03 00:08:48;;;;;;;22.55;13.85;;;3.70;75.80;;;;;;5037913;28;20028;-66
2022/12/03 00:11:14;;;;;;;27.83;16.77;;;3.80;76.00;;;;;;5011883;28;20041;-66
2022/12/03 00:13:39;;;;;;;25.10;15.50;;;3.80;75.90;;;;;;5033193;28;20045;-65
2022/12/03 00:16:05;;;;;;;23.40;13.93;;;3.80;75.80;;;;;;5013767;28;20092;-66
2022/12/03 00:18:31;;;;;;;23.20;14.07;;;3.80;75.90;;;;;;5015066;28;20554;-66
2022/12/03 00:20:56;;;;;;;23.10;13.93;;;3.80;75.90;;;;;;5029524;28;20022;-65
2022/12/03 00:23:22;;;;;;;21.65;13.25;;;3.80;75.90;;;;;;5029390;28;20116;-66
2022/12/03 00:25:47;;;;;;;25.67;15.18;;;3.90;75.90;;;;;;5015118;28;20503;-66
2022/12/03 00:28:13;;;;;;;27.27;16.00;;;3.80;75.80;;;;;;5033046;28;20443;-67
2022/12/03 00:30:38;;;;;;;23.92;14.43;;;3.80;75.90;;;;;;5010898;28;20757;-67
2022/12/03 00:33:04;;;;;;;26.33;15.77;;;3.80;75.90;;;;;;5032149;28;20044;-67
2022/12/03 00:35:29;;;;;;;25.00;13.75;;;3.80;75.90;;;;;;5036114;28;20025;-65
2022/12/03 00:37:55;;;;;;;26.95;16.15;;;3.80;76.00;;;;;;5035969;28;20105;-66
2022/12/03 00:40:21;;;;;;;27.55;15.63;;;3.70;76.00;;;;;;5034603;28;20064;-66
2022/12/03 00:42:46;;;;;;;25.63;15.45;;;3.80;76.20;;;;;;5037571;28;20028;-65
2022/12/03 00:45:12;;;;;;;24.20;14.48;;;3.80;76.20;;;;;;5031863;28;20032;-66
2022/12/03 00:47:37;;;;;;;24.35;14.63;;;3.80;76.30;;;;;;5032513;28;20025;-66
2022/12/03 00:50:05;;;;;;;26.65;15.23;;;3.80;76.40;;;;;;5031190;28;20041;-66
2022/12/03 00:52:30;;;;;;;24.75;13.77;;;3.90;76.40;;;;;;5015004;28;20117;-66
2022/12/03 00:54:56;;;;;;;24.67;13.85;;;3.90;76.40;;;;;;5031129;28;20076;-66
2022/12/03 00:57:21;;;;;;;24.48;14.38;;;3.90;76.40;;;;;;5040388;28;20454;-67
2022/12/03 00:59:47;;;;;;;29.90;16.58;;;3.90;76.30;;;;;;5032365;28;20044;-68
2022/12/03 01:02:12;;;;;;;22.88;12.77;;;3.90;76.40;;;;;;5033362;28;20104;-68
2022/12/03 01:04:38;;;;;;;24.10;13.93;;;4.00;76.50;;;;;;5032492;28;20025;-66
2022/12/03 01:07:04;;;;;;;24.17;14.45;;;4.00;76.50;;;;;;5041076;28;20025;-67
2022/12/03 01:09:29;;;;;;;26.95;14.95;;;4.00;76.50;;;;;;5052689;28;20036;-67
2022/12/03 01:11:55;;;;;;;25.33;14.57;;;4.00;76.60;;;;;;5046457;28;20033;-67
2022/12/03 01:14:20;;;;;;;29.00;17.45;;;4.00;77.10;;;;;;5051644;28;20037;-67
2022/12/03 01:16:47;;;;;;;25.27;14.98;;;4.00;76.50;;;;;;5038617;28;20057;-67
2022/12/03 01:19:16;;;;;;;26.10;14.43;;;4.00;76.80;;;;;;5014363;28;20514;-68
2022/12/03 01:21:43;;;;;;;29.77;17.13;;;4.00;76.80;;;;;;5034917;28;20030;-67
2022/12/03 01:24:10;;;;;;;27.73;15.27;;;3.90;76.80;;;;;;5015072;28;20032;-67
2022/12/03 01:26:35;;;;;;;27.85;15.95;;;3.90;77.10;;;;;;5026112;28;20029;-67
2022/12/03 01:29:01;;;;;;;26.27;15.10;;;3.90;77.10;;;;;;5019334;28;20029;-68
2022/12/03 01:34:11;;;;;;;26.77;15.63;;;3.90;77.00;;;;;;5026498;28;20061;-67
2022/12/03 01:36:37;;;;;;;26.58;15.88;;;3.90;77.00;;;;;;5038484;28;20029;-67
2022/12/03 01:39:03;;;;;;;35.53;19.60;;;3.90;77.00;;;;;;5019611;28;20095;-67
2022/12/03 01:41:29;;;;;;;26.95;15.15;;;3.80;77.10;;;;;;5035745;28;20025;-67
2022/12/03 01:43:56;;;;;;;25.90;14.48;;;3.80;77.40;;;;;;5032279;28;20033;-67
2022/12/03 01:46:25;;;;;;;25.10;13.95;;;3.80;77.50;;;;;;5031682;28;20053;-67
2022/12/03 01:48:54;;;;;;;27.55;14.57;;;3.90;77.70;;;;;;5031735;28;20029;-67
2022/12/03 01:51:21;;;;;;;29.95;16.17;;;3.90;77.40;;;;;;5049256;28;20537;-67
2022/12/03 01:53:47;;;;;;;26.50;14.95;;;3.90;77.50;;;;;;5036621;28;20112;-67
2022/12/03 01:56:16;;;;;;;27.98;15.98;;;3.90;77.50;;;;;;5037224;28;20108;-67
2022/12/03 01:58:43;;;;;;;32.33;17.67;;;3.90;77.50;;;;;;5033334;28;20056;-67
2022/12/03 02:01:15;;;;;;;28.83;16.27;;;3.80;77.50;;;;;;5021172;28;20067;-67
2022/12/03 02:03:41;;;;;;;27.08;15.07;;;3.80;77.70;;;;;;5045475;28;20420;-67
2022/12/03 02:06:18;;;;;;;26.60;15.20;;;3.90;77.70;;;;;;5023839;28;20017;-67
2022/12/03 02:08:43;;;;;;;26.27;14.77;;;3.90;77.70;;;;;;5037948;28;20044;-66
2022/12/03 02:11:12;;;;;;;28.23;15.70;;;3.90;77.70;;;;;;5032837;28;20399;-66
2022/12/03 02:13:38;;;;;;;31.45;17.15;;;3.90;77.70;;;;;;5037695;28;20037;-66
2022/12/03 02:16:03;;;;;;;29.35;17.25;;;3.90;77.80;;;;;;5037636;28;20025;-66
2022/12/03 02:18:29;;;;;;;31.13;17.08;;;3.80;78.00;;;;;;5049819;28;20079;-66
2022/12/03 02:21:31;;;;;;;32.10;17.55;;;3.80;78.10;;;;;;5033723;28;20032;-66
2022/12/03 02:24:23;;;;;;;27.98;15.75;;;3.80;78.20;;;;;;5046941;28;20075;-66
2022/12/03 02:26:48;;;;;;;27.70;15.93;;;3.90;78.20;;;;;;5035145;28;20025;-66
2022/12/03 02:29:14;;;;;;;26.20;14.70;;;3.90;78.20;;;;;;5030770;28;20029;-66
2022/12/03 02:31:41;;;;;;;24.92;14.35;;;3.90;78.20;;;;;;5032242;28;20167;-66
2022/12/03 02:34:07;;;;;;;34.03;19.05;;;4.00;78.10;;;;;;5026076;28;20036;-66
2022/12/03 02:36:34;;;;;;;34.17;19.88;;;4.00;77.80;;;;;;5037116;28;20075;-66
2022/12/03 02:39:01;;;;;;;27.40;15.85;;;3.90;78.00;;;;;;5049430;28;20044;-67
2022/12/03 02:44:11;;;;;;;31.73;18.35;;;3.80;78.20;;;;;;5029811;28;20564;-67
2022/12/03 02:46:37;;;;;;;34.47;19.25;;;3.80;78.60;;;;;;5033849;28;20104;-66
2022/12/03 02:49:04;;;;;;;36.88;20.17;;;3.70;78.60;;;;;;5030609;28;20543;-67
2022/12/03 02:51:31;;;;;;;31.63;17.05;;;3.60;78.70;;;;;;5034617;28;20033;-67
2022/12/03 02:53:58;;;;;;;32.05;18.45;;;3.70;79.10;;;;;;5050713;28;20032;-67
2022/12/03 02:56:28;;;;;;;31.60;18.48;;;3.70;79.00;;;;;;5020667;28;20432;-67
2022/12/03 02:58:58;;;;;;;31.98;18.45;;;3.70;79.10;;;;;;5021955;28;20028;-67
2022/12/03 03:01:24;;;;;;;27.52;16.02;;;3.70;79.10;;;;;;5040634;28;20025;-67
2022/12/03 03:03:50;;;;;;;27.83;16.38;;;3.80;79.10;;;;;;5049153;28;20519;-67
2022/12/03 03:06:17;;;;;;;29.77;17.10;;;3.90;79.20;;;;;;5039118;28;20026;-67
2022/12/03 03:08:43;;;;;;;34.33;18.85;;;3.90;78.70;;;;;;5012181;28;20033;-66
2022/12/03 03:11:09;;;;;;;31.08;18.08;;;3.90;78.70;;;;;;5030216;28;20028;-67
2022/12/03 03:13:36;;;;;;;34.40;18.95;;;3.80;78.60;;;;;;5013568;28;20025;-67
2022/12/03 03:16:03;;;;;;;32.40;18.90;;;3.80;78.30;;;;;;5042701;28;20022;-66
2022/12/03 03:18:29;;;;;;;33.03;19.65;;;3.80;78.30;;;;;;5030565;28;20442;-67
2022/12/03 03:20:55;;;;;;;34.58;19.67;;;3.70;77.60;;;;;;5030054;28;20044;-67
2022/12/03 03:23:23;;;;;;;33.55;19.02;;;3.70;77.80;;;;;;5029441;28;20057;-66
2022/12/03 03:26:09;;;;;;;29.77;17.20;;;3.70;77.70;;;;;;5041639;28;20040;-66
2022/12/03 03:28:41;;;;;;;29.92;17.83;;;3.60;77.60;;;;;;5030479;28;20030;-66
2022/12/03 03:31:10;;;;;;;33.42;19.65;;;3.60;77.50;;;;;;5012719;28;20044;-66
2022/12/03 03:33:42;;;;;;;31.20;17.48;;;3.60;77.30;;;;;;5022072;28;20026;-65
2022/12/03 03:36:08;;;;;;;33.78;19.48;;;3.60;77.70;;;;;;5014836;28;20103;-66
2022/12/03 03:38:35;;;;;;;33.15;18.42;;;3.50;77.70;;;;;;5030049;28;20036;-67
2022/12/03 03:41:04;;;;;;;29.73;17.05;;;3.50;78.00;;;;;;5031248;28;20021;-64
2022/12/03 03:43:33;;;;;;;28.63;16.95;;;3.50;78.00;;;;;;5029635;28;20033;-66
2022/12/03 03:45:59;;;;;;;30.88;17.58;;;3.60;78.00;;;;;;5032677;28;20079;-65
2022/12/03 03:48:25;;;;;;;31.75;18.55;;;3.60;77.50;;;;;;5031038;28;20480;-65
2022/12/03 03:50:52;;;;;;;30.85;18.17;;;3.50;77.20;;;;;;5014073;28;20099;-66
2022/12/03 03:53:19;;;;;;;29.13;17.55;;;3.60;77.30;;;;;;5014082;28;20026;-66
2022/12/03 03:55:45;;;;;;;29.27;17.98;;;3.40;76.80;;;;;;5030263;28;20477;-65
2022/12/03 03:58:12;;;;;;;28.88;16.88;;;3.40;76.60;;;;;;5035885;28;20059;-66
2022/12/03 04:00:38;;;;;;;30.92;17.63;;;3.40;76.90;;;;;;5031535;28;20029;-66
2022/12/03 04:03:04;;;;;;;28.65;16.27;;;3.40;76.20;;;;;;5034284;28;20599;-65
2022/12/03 04:05:30;;;;;;;25.52;15.48;;;3.40;75.70;;;;;;5030948;28;20026;-65
2022/12/03 04:07:55;;;;;;;28.35;17.38;;;3.30;75.60;;;;;;5039540;28;20156;-66
2022/12/03 04:13:05;;;;;;;26.08;15.68;;;3.30;76.10;;;;;;5037541;28;20044;-65
2022/12/03 04:15:31;;;;;;;26.52;15.70;;;3.30;75.00;;;;;;5033914;28;20484;-66
2022/12/03 04:23:44;;;;;;;25.30;15.88;;;3.10;74.60;;;;;;4982440;28;20092;-66
2022/12/03 04:28:54;;;;;;;29.23;16.95;;;3.20;75.30;;;;;;5043289;28;20083;-66
2022/12/03 04:36:48;;;;;;;27.05;16.30;;;3.10;75.50;;;;;;5034012;28;20076;-65
2022/12/03 04:39:13;;;;;;;26.25;15.60;;;3.10;75.70;;;;;;5038375;28;20499;-65
2022/12/03 04:41:39;;;;;;;23.55;14.63;;;3.10;75.80;;;;;;5036965;28;20137;-65
2022/12/03 04:46:49;;;;;;;29.98;17.23;;;3.20;75.70;;;;;;5041750;28;20040;-65
2022/12/03 04:49:14;;;;;;;29.50;16.08;;;3.20;75.70;;;;;;5040058;28;20034;-66
2022/12/03 04:51:40;;;;;;;29.95;16.98;;;3.20;75.80;;;;;;5015336;28;20029;-66
2022/12/03 04:54:05;;;;;;;28.80;17.58;;;3.20;75.90;;;;;;5043838;28;20395;-67
2022/12/03 04:56:31;;;;;;;32.17;18.05;;;3.20;75.90;;;;;;5039593;28;20024;-66
2022/12/03 04:58:57;;;;;;;29.63;17.70;;;3.10;75.80;;;;;;5023081;28;20080;-67
2022/12/03 05:01:22;;;;;;;27.50;16.25;;;3.10;76.10;;;;;;5038682;28;20013;-67
2022/12/03 05:03:48;;;;;;;31.15;18.02;;;3.10;76.40;;;;;;5051431;28;20031;-66
2022/12/03 05:06:13;;;;;;;35.17;19.40;;;3.10;76.40;;;;;;5038296;28;20039;-67
2022/12/03 05:08:39;;;;;;;33.38;19.52;;;3.10;76.60;;;;;;5043545;28;20037;-67
2022/12/03 05:11:05;;;;;;;33.50;19.67;;;3.10;76.70;;;;;;5046245;28;20025;-66
2022/12/03 05:13:30;;;;;;;37.15;21.63;;;3.00;76.90;;;;;;5044249;28;20038;-66
2022/12/03 05:15:56;;;;;;;33.28;18.50;;;3.00;76.90;;;;;;5032451;28;20026;-66
2022/12/03 05:18:21;;;;;;;28.48;16.60;;;3.00;77.10;;;;;;5044919;28;20082;-66
2022/12/03 05:20:47;;;;;;;31.55;17.65;;;3.00;77.30;;;;;;5040819;28;20021;-65
2022/12/03 05:23:13;;;;;;;32.53;18.27;;;3.10;77.30;;;;;;5032740;28;20387;-66
2022/12/03 05:25:39;;;;;;;33.63;19.30;;;3.10;77.30;;;;;;5035497;28;20029;-67
2022/12/03 05:28:06;;;;;;;33.25;19.42;;;3.10;77.40;;;;;;5039457;28;20029;-67
2022/12/03 05:30:32;;;;;;;32.75;19.00;;;3.20;77.40;;;;;;5026635;28;20124;-67
2022/12/03 05:32:58;;;;;;;36.30;20.95;;;3.10;77.30;;;;;;5031576;28;20842;-67
2022/12/03 05:35:24;;;;;;;35.80;20.77;;;3.10;77.30;;;;;;5019730;28;20030;-67
2022/12/03 05:37:49;;;;;;;36.40;20.65;;;3.10;77.50;;;;;;5033349;28;20108;-67
2022/12/03 05:40:15;;;;;;;35.15;19.80;;;3.00;77.60;;;;;;5034032;28;20029;-67
2022/12/03 05:42:52;;;;;;;32.45;19.60;;;3.00;77.90;;;;;;5031631;28;20036;-67
2022/12/03 05:45:25;;;;;;;32.47;19.05;;;3.00;78.00;;;;;;5014004;28;20480;-67
2022/12/03 05:47:53;;;;;;;32.45;19.00;;;3.00;78.00;;;;;;5031023;28;20111;-66
2022/12/03 05:50:20;;;;;;;33.90;19.42;;;3.00;78.70;;;;;;5031250;28;20028;-67
2022/12/03 05:52:45;;;;;;;36.13;20.90;;;3.00;78.10;;;;;;5038494;28;20152;-66
2022/12/03 05:55:11;;;;;;;34.80;19.90;;;3.00;78.20;;;;;;5032205;28;20112;-66
2022/12/03 05:57:37;;;;;;;34.35;19.67;;;3.00;78.20;;;;;;5038226;28;20486;-67
2022/12/03 06:00:05;;;;;;;33.20;20.00;;;2.90;78.00;;;;;;5051365;28;20037;-68
2022/12/03 06:02:30;;;;;;;32.08;18.73;;;2.90;78.30;;;;;;5028691;28;20028;-65
2022/12/03 06:04:56;;;;;;;35.33;19.75;;;2.90;78.40;;;;;;5042309;28;20029;-66
2022/12/03 06:07:22;;;;;;;34.80;19.40;;;2.90;78.50;;;;;;5035263;28;20076;-67
2022/12/03 06:09:48;;;;;;;35.17;20.13;;;3.00;78.60;;;;;;5031598;28;20033;-67
2022/12/03 06:12:13;;;;;;;38.25;19.42;;;2.90;78.50;;;;;;5018271;28;20037;-67
2022/12/03 06:14:40;;;;;;;31.67;18.13;;;3.00;78.60;;;;;;5051442;28;20086;-67
2022/12/03 06:17:05;;;;;;;34.90;20.30;;;3.00;78.70;;;;;;5038798;28;20118;-67
2022/12/03 06:19:31;;;;;;;34.15;19.20;;;2.90;78.60;;;;;;5031061;28;20650;-67
2022/12/03 06:21:57;;;;;;;29.88;16.58;;;2.90;78.80;;;;;;5029767;28;20060;-66
2022/12/03 06:24:22;;;;;;;31.52;18.42;;;3.00;78.90;;;;;;5013492;28;20030;-67
2022/12/03 06:26:48;;;;;;;30.90;18.52;;;3.00;78.80;;;;;;5032826;28;20072;-67
2022/12/03 06:29:13;;;;;;;32.53;19.05;;;3.00;78.70;;;;;;5033358;28;20032;-67
2022/12/03 06:31:39;;;;;;;32.67;18.80;;;3.00;78.90;;;;;;5031645;28;20036;-68
2022/12/03 06:34:04;;;;;;;28.50;16.05;;;3.00;79.00;;;;;;5031432;28;20065;-67
2022/12/03 06:36:30;;;;;;;31.52;18.48;;;3.10;79.00;;;;;;5029572;28;20108;-68
2022/12/03 06:38:55;;;;;;;32.22;19.00;;;3.20;78.90;;;;;;5031615;28;20100;-67
2022/12/03 06:41:21;;;;;;;31.38;18.10;;;3.10;78.50;;;;;;5031644;28;20040;-67
2022/12/03 06:43:47;;;;;;;33.80;19.05;;;3.10;78.80;;;;;;5042559;28;20071;-67
2022/12/03 06:46:12;;;;;;;29.63;17.85;;;3.10;78.80;;;;;;5046451;28;20074;-66
2022/12/03 06:48:38;;;;;;;30.60;17.27;;;3.10;78.80;;;;;;5035861;28;20104;-68
2022/12/03 06:51:03;;;;;;;28.65;16.05;;;3.10;79.00;;;;;;5040453;28;20067;-66
2022/12/03 06:53:29;;;;;;;33.10;18.25;;;3.10;79.10;;;;;;5030586;28;20108;-67
2022/12/03 06:55:54;;;;;;;37.03;19.70;;;3.10;79.10;;;;;;5031818;28;20057;-67
2022/12/03 06:58:20;;;;;;;33.58;18.30;;;3.00;79.20;;;;;;5030716;28;20037;-66
2022/12/03 07:00:45;;;;;;;32.17;17.95;;;3.00;79.40;;;;;;5030177;28;20033;-68
2022/12/03 07:03:11;;;;;;;31.02;16.98;;;3.00;79.40;;;;;;5033806;28;20368;-67
2022/12/03 07:05:36;;;;;;;33.45;18.52;;;3.00;79.50;;;;;;5030029;28;20028;-67
2022/12/03 07:08:02;;;;;;;30.77;17.52;;;3.00;79.60;;;;;;5029913;28;20033;-66
2022/12/03 07:10:28;;;;;;;31.08;16.38;;;3.00;79.70;;;;;;5030114;28;20021;-67
2022/12/03 07:12:53;;;;;;;28.67;15.68;;;3.00;79.80;;;;;;5029210;28;20040;-67
2022/12/03 07:15:19;;;;;;;30.27;16.73;;;3.10;79.70;;;;;;5027045;28;20065;-66
2022/12/03 07:17:44;;;;;;;31.42;16.85;;;3.20;79.60;;;;;;5029598;28;20111;-67
2022/12/03 07:20:10;;;;;;;33.00;17.73;;;3.20;79.60;;;;;;5028527;28;20052;-67
2022/12/03 07:22:36;;;;;;;31.88;17.80;;;3.20;79.50;;;;;;5025362;28;20025;-68
2022/12/03 07:25:02;;;;;;;38.75;20.05;;;3.20;79.60;;;;;;5033346;28;20392;-66
2022/12/03 07:27:27;;;;;;;39.92;20.85;;;3.10;79.60;;;;;;5032494;28;20503;-67
2022/12/03 07:29:53;;;;;;;37.55;20.80;;;3.10;79.70;;;;;;5037793;28;20499;-67
2022/12/03 07:32:18;;;;;;;31.92;17.67;;;3.00;80.00;;;;;;5018303;28;20025;-67
2022/12/03 07:34:44;;;;;;;44.20;22.55;;;3.10;80.10;;;;;;5036283;28;20440;-67
2022/12/03 07:37:09;;;;;;;42.05;22.73;;;3.10;80.10;;;;;;5012307;28;20021;-66
2022/12/03 07:39:35;;;;;;;39.88;22.50;;;3.00;80.10;;;;;;5029810;28;20515;-68
2022/12/03 07:42:01;;;;;;;39.38;21.40;;;3.00;80.30;;;;;;5038193;28;20029;-68
2022/12/03 07:44:27;;;;;;;39.17;20.80;;;3.00;80.50;;;;;;5035142;28;20021;-67
2022/12/03 07:46:52;;;;;;;46.65;23.33;;;3.00;80.70;;;;;;5030300;28;20025;-68
2022/12/03 07:49:18;;;;;;;42.92;21.48;;;3.00;80.50;;;;;;5033565;28;20029;-67
2022/12/03 07:51:52;;;;;;;49.08;22.67;;;3.00;80.50;;;;;;5033362;28;20040;-67
2022/12/03 07:54:18;;;;;;;47.22;23.55;;;3.00;80.40;;;;;;5028259;28;20033;-68
2022/12/03 07:56:46;;;;;;;39.90;20.58;;;3.00;80.20;;;;;;5029539;28;20099;-67
2022/12/03 07:59:12;;;;;;;47.45;23.80;;;3.10;80.20;;;;;;5037024;28;20128;-67
2022/12/03 08:01:38;;;;;;;47.88;22.42;;;3.10;80.60;;;;;;5030129;28;20176;-68
2022/12/03 08:04:03;;;;;;;41.97;21.50;;;3.00;79.90;;;;;;5034202;28;20040;-68
2022/12/03 08:06:29;;;;;;;52.42;24.80;;;3.10;80.00;;;;;;5029731;28;20033;-67
2022/12/03 08:08:54;;;;;;;49.95;25.15;;;3.10;79.60;;;;;;5041588;28;20028;-67
2022/12/03 08:11:20;;;;;;;49.47;24.92;;;3.10;79.50;;;;;;5033310;28;20551;-67
2022/12/03 08:13:45;;;;;;;48.95;24.40;;;3.00;79.50;;;;;;5013005;28;20025;-67
2022/12/03 08:16:18;;;;;;;47.42;23.60;;;3.00;79.50;;;;;;5029916;28;20079;-67
2022/12/03 08:18:45;;;;;;;48.78;24.02;;;2.90;79.40;;;;;;5011927;28;20399;-67
2022/12/03 08:21:16;;;;;;;44.88;23.70;;;2.90;79.40;;;;;;5031970;28;20088;-67
2022/12/03 08:23:42;;;;;;;51.72;25.27;;;2.90;79.40;;;;;;5047458;28;20195;-67
2022/12/03 08:26:27;;;;;;;51.65;24.35;;;2.90;79.40;;;;;;5022167;28;20083;-67
2022/12/03 08:28:53;;;;;;;51.45;24.70;;;2.80;79.40;;;;;;5037650;28;20060;-67
2022/12/03 08:31:24;;;;;;;49.17;24.73;;;2.70;79.30;;;;;;5029138;28;20056;-67
2022/12/03 08:33:53;;;;;;;48.45;23.35;;;2.70;79.70;;;;;;5012249;28;20120;-67
2022/12/03 08:36:20;;;;;;;44.85;21.50;;;2.80;79.80;;;;;;5029548;28;20456;-74
2022/12/03 08:38:54;;;;;;;41.40;20.75;;;2.80;79.80;;;;;;5011836;28;20109;-67
2022/12/03 08:44:17;;;;;;;48.58;24.20;;;2.90;79.40;;;;;;5042159;28;20450;-67
2022/12/03 08:46:43;;;;;;;49.72;23.83;;;2.90;79.10;;;;;;5033086;28;20025;-66
2022/12/03 08:49:10;;;;;;;45.10;22.42;;;2.90;79.00;;;;;;5039235;28;20399;-66
2022/12/03 08:51:35;;;;;;;46.03;22.38;;;2.90;79.60;;;;;;5042889;28;20108;-66
2022/12/03 08:54:11;;;;;;;47.53;22.95;;;2.80;78.90;;;;;;5035727;28;20033;-66
2022/12/03 08:56:38;;;;;;;45.25;21.83;;;2.80;79.10;;;;;;5035047;28;20108;-67
2022/12/03 08:59:28;;;;;;;47.33;23.10;;;2.80;79.40;;;;;;5034843;28;20035;-67
2022/12/03 09:01:54;;;;;;;41.35;20.02;;;2.80;79.40;;;;;;5040771;28;20026;-66
2022/12/03 09:04:44;;;;;;;46.97;22.08;;;2.80;79.40;;;;;;5038347;28;20037;-66
2022/12/03 09:07:10;;;;;;;40.30;18.75;;;2.80;79.30;;;;;;5026236;28;20032;-66
2022/12/03 09:09:35;;;;;;;47.97;22.08;;;2.80;79.40;;;;;;5038855;28;20033;-67
2022/12/03 09:12:01;;;;;;;49.30;22.42;;;2.70;79.30;;;;;;5035269;28;20064;-67
2022/12/03 09:14:27;;;;;;;49.25;23.25;;;2.80;79.40;;;;;;5036149;28;20025;-67
2022/12/03 09:16:54;;;;;;;50.42;22.42;;;2.60;79.30;;;;;;5033601;28;20033;-67
2022/12/03 09:19:21;;;;;;;44.95;20.40;;;2.60;79.80;;;;;;5022004;28;20018;-67
2022/12/03 09:21:48;;;;;;;56.20;24.70;;;2.60;80.00;;;;;;5037207;28;20075;-67
2022/12/03 09:24:14;;;;;;;55.25;24.02;;;2.60;80.00;;;;;;5034777;28;20079;-67
2022/12/03 09:26:39;;;;;;;52.95;23.60;;;2.50;80.40;;;;;;5035713;28;20096;-67
2022/12/03 09:29:05;;;;;;;52.38;23.73;;;2.50;80.80;;;;;;5038012;28;20583;-66
2022/12/03 09:31:33;;;;;;;51.22;22.75;;;2.60;81.00;;;;;;5037563;28;20109;-67
2022/12/03 09:33:59;;;;;;;54.42;23.90;;;2.50;80.90;;;;;;5023035;28;20067;-66
2022/12/03 09:36:24;;;;;;;48.30;21.58;;;2.50;81.10;;;;;;5029288;28;20030;-68
2022/12/03 09:38:50;;;;;;;49.10;21.92;;;2.50;81.20;;;;;;5032362;28;20029;-68
2022/12/03 09:41:16;;;;;;;51.95;23.60;;;2.60;81.00;;;;;;5033165;28;20029;-68
2022/12/03 09:43:42;;;;;;;47.33;22.65;;;2.60;80.90;;;;;;5033637;28;20107;-67
2022/12/03 09:46:08;;;;;;;44.85;19.33;;;2.70;80.80;;;;;;5032775;28;20059;-68
2022/12/03 09:48:34;;;;;;;45.25;21.23;;;2.60;80.60;;;;;;5037580;28;20032;-67
2022/12/03 09:51:01;;;;;;;40.50;19.23;;;2.60;80.00;;;;;;5041244;28;20037;-66
2022/12/03 09:53:27;;;;;;;41.67;19.08;;;2.60;80.10;;;;;;5031177;28;20118;-66
2022/12/03 09:55:56;;;;;;;36.92;18.70;;;2.60;79.80;;;;;;5027618;28;20109;-67
2022/12/03 09:58:22;;;;;;;38.65;18.75;;;2.60;79.80;;;;;;5007736;28;20033;-66
2022/12/03 10:00:49;;;;;;;36.53;18.55;;;2.60;79.50;;;;;;5010896;28;20357;-67
2022/12/03 10:03:18;;;;;;;36.45;18.02;;;2.60;80.00;;;;;;5028614;28;20173;-66
2022/12/03 10:05:44;;;;;;;34.35;16.00;;;2.60;79.30;;;;;;5035035;28;20031;-67
2022/12/03 10:08:12;;;;;;;36.45;17.85;;;2.60;79.00;;;;;;5024066;28;20030;-66
2022/12/03 10:10:40;;;;;;;34.28;16.55;;;2.60;78.90;;;;;;5013144;28;20079;-66
2022/12/03 10:13:09;;;;;;;32.83;16.42;;;2.60;78.70;;;;;;5035337;28;20025;-66
2022/12/03 10:15:36;;;;;;;33.85;16.08;;;2.50;78.60;;;;;;5013024;28;20014;-66
2022/12/03 10:18:15;;;;;;;29.55;15.15;;;2.50;78.60;;;;;;5016898;28;20426;-66
2022/12/03 10:20:40;;;;;;;35.25;16.52;;;2.50;79.00;;;;;;5024852;28;20112;-66
2022/12/03 10:23:24;;;;;;;32.80;16.55;;;2.50;79.10;;;;;;5001778;28;20049;-66
2022/12/03 10:25:53;;;;;;;36.97;17.58;;;2.60;79.30;;;;;;5014848;28;20037;-65
2022/12/03 10:28:32;;;;;;;37.05;17.77;;;2.60;79.30;;;;;;5050502;28;20025;-65
2022/12/03 10:31:00;;;;;;;38.08;17.05;;;2.50;79.50;;;;;;5021828;28;20032;-66
2022/12/03 10:33:34;;;;;;;36.08;18.10;;;2.50;79.80;;;;;;5029043;28;20437;-66
2022/12/03 10:36:24;;;;;;;39.15;19.17;;;2.50;80.20;;;;;;4993536;28;20124;-66
2022/12/03 10:39:11;;;;;;;40.78;19.35;;;2.50;80.60;;;;;;5026517;28;20041;-66
2022/12/03 10:41:38;;;;;;;36.40;17.65;;;2.50;80.80;;;;;;5037631;28;20092;-66
2022/12/03 10:44:18;;;;;;;37.05;17.20;;;2.50;81.10;;;;;;5047446;28;20601;-66
2022/12/03 10:46:45;;;;;;;40.97;18.58;;;2.50;81.50;;;;;;5030777;28;20387;-66
2022/12/03 10:49:17;;;;;;;39.17;18.02;;;2.50;81.60;;;;;;5030697;28;20029;-66
2022/12/03 10:51:44;;;;;;;37.00;17.65;;;2.40;81.60;;;;;;5034743;28;20116;-66
2022/12/03 10:54:22;;;;;;;34.80;17.30;;;2.50;81.80;;;;;;5031654;28;20108;-65
2022/12/03 10:56:50;;;;;;;35.67;16.80;;;2.40;81.60;;;;;;5032684;28;20039;-66
2022/12/03 10:59:20;;;;;;;32.58;15.88;;;2.40;81.80;;;;;;5050743;28;20487;-66
2022/12/03 11:01:46;;;;;;;33.70;16.25;;;2.50;82.00;;;;;;5015538;28;20029;-66
2022/12/03 11:04:22;;;;;;;35.85;17.00;;;2.60;81.80;;;;;;5031827;28;20480;-66
2022/12/03 11:06:48;;;;;;;39.85;18.23;;;2.60;81.50;;;;;;5038352;28;20414;-66
2022/12/03 11:09:23;;;;;;;33.67;16.90;;;2.50;81.50;;;;;;5050689;28;20028;-67
2022/12/03 11:11:49;;;;;;;31.88;15.43;;;2.40;81.90;;;;;;5038658;28;20070;-67
2022/12/03 11:14:50;;;;;;;35.28;16.10;;;2.40;82.30;;;;;;5045463;28;20493;-65
2022/12/03 11:17:45;;;;;;;34.20;16.73;;;2.30;82.50;;;;;;5017589;28;20068;-65
2022/12/03 11:20:31;;;;;;;33.35;16.58;;;2.40;82.60;;;;;;5046972;28;20029;-66
2022/12/03 11:22:57;;;;;;;37.38;16.65;;;2.40;82.60;;;;;;5027666;28;20055;-66
2022/12/03 11:25:25;;;;;;;30.38;15.25;;;2.40;82.70;;;;;;5016831;28;20033;-66
2022/12/03 11:28:13;;;;;;;31.25;15.27;;;2.40;82.80;;;;;;5045296;28;20388;-66
2022/12/03 11:30:47;;;;;;;33.22;15.55;;;2.40;82.70;;;;;;5035498;28;20018;-66
2022/12/03 11:33:28;;;;;;;33.17;15.73;;;2.50;82.70;;;;;;5030274;28;20030;-66
2022/12/03 11:36:02;;;;;;;30.73;14.25;;;2.40;82.50;;;;;;5034063;28;20028;-66
2022/12/03 11:38:37;;;;;;;30.15;15.10;;;2.40;82.70;;;;;;5030004;28;20104;-66
2022/12/03 11:41:19;;;;;;;31.05;15.27;;;2.30;82.70;;;;;;5033951;28;20024;-66
2022/12/03 11:43:51;;;;;;;32.78;16.52;;;2.30;82.90;;;;;;5029903;28;20032;-66
2022/12/03 11:46:26;;;;;;;31.75;15.50;;;2.40;82.90;;;;;;5033398;28;20030;-66
2022/12/03 11:48:53;;;;;;;32.78;15.27;;;2.40;82.80;;;;;;5012459;28;20064;-66
2022/12/03 11:51:21;;;;;;;31.75;15.60;;;2.50;82.70;;;;;;5033509;28;20156;-66
2022/12/03 11:53:49;;;;;;;33.35;16.05;;;2.50;82.50;;;;;;5029969;28;20026;-66
2022/12/03 11:56:21;;;;;;;33.75;15.73;;;2.40;82.40;;;;;;5033157;28;20096;-66
2022/12/03 11:58:46;;;;;;;;;;;2.40;82.90;;;;;;5030394;28;20044;-66
2022/12/03 12:01:14;;;;;;;32.40;15.88;;;2.40;83.00;;;;;;5027937;28;19910;-66
2022/12/03 12:03:48;;;;;;;27.38;13.38;;;2.40;83.20;;;;;;5028372;28;20390;-66
2022/12/03 12:06:16;;;;;;;28.98;14.45;;;2.50;83.30;;;;;;5034487;28;20021;-66
2022/12/03 12:08:51;;;;;;;33.88;16.25;;;2.60;83.00;;;;;;5032147;28;20028;-66
2022/12/03 12:11:28;;;;;;;34.92;16.50;;;2.60;82.80;;;;;;5049527;28;20085;-66
2022/12/03 12:13:58;;;;;;;32.13;14.90;;;2.60;82.50;;;;;;5032999;28;20079;-67
2022/12/03 12:16:51;;;;;;;29.95;14.48;;;2.60;82.60;;;;;;5025340;28;20034;-66
2022/12/03 12:19:30;;;;;;;;;;;2.70;82.60;;;;;;5015486;28;20045;-66
2022/12/03 12:22:10;;;;;;;41.08;19.50;;;2.70;81.80;;;;;;5029626;28;19944;-66
2022/12/03 12:24:39;;;;;;;35.00;16.58;;;2.50;82.10;;;;;;5033250;28;20037;-66
2022/12/03 12:27:11;;;;;;;39.00;19.13;;;2.40;82.60;;;;;;5020735;28;20075;-66
2022/12/03 12:29:38;;;;;;;39.72;18.38;;;2.40;82.60;;;;;;5038463;28;20060;-66
2022/12/03 12:32:09;;;;;;;41.42;18.45;;;2.40;82.80;;;;;;5036381;28;20724;-66
2022/12/03 12:34:41;;;;;;;42.70;18.38;;;2.40;82.90;;;;;;5037108;28;20546;-66
2022/12/03 12:37:13;;;;;;;46.15;20.77;;;2.40;82.90;;;;;;5026646;28;20167;-66
2022/12/03 12:39:39;;;;;;;39.25;17.88;;;2.40;83.00;;;;;;5013656;28;20510;-66
2022/12/03 12:42:20;;;;;;;45.38;20.83;;;2.50;83.10;;;;;;4995793;28;20484;-66
2022/12/03 12:44:45;;;;;;;46.10;21.50;;;2.40;83.00;;;;;;5043352;28;20029;-66
2022/12/03 12:47:11;;;;;;;49.63;22.52;;;2.50;83.20;;;;;;5037269;28;20032;-66
2022/12/03 12:49:37;;;;;;;39.55;18.67;;;2.50;83.00;;;;;;5015191;28;20041;-66
2022/12/03 12:52:04;;;;;;;55.63;24.20;;;2.50;83.10;;;;;;5047270;28;20480;-66
2022/12/03 12:54:30;;;;;;;45.97;20.98;;;2.50;82.80;;;;;;5045222;28;20066;-66
2022/12/03 12:56:55;;;;;;;48.88;22.25;;;2.50;83.10;;;;;;5052725;28;20434;-66
2022/12/03 12:59:23;;;;;;;48.78;21.83;;;2.40;83.10;;;;;;5039395;28;20033;-66
2022/12/03 13:01:49;;;;;;;45.40;20.95;;;2.50;83.00;;;;;;5027193;28;20066;-66
2022/12/03 13:04:18;;;;;;;43.58;18.98;;;2.50;83.00;;;;;;5037428;28;20017;-66
2022/12/03 13:06:46;;;;;;;47.63;21.83;;;2.60;82.90;;;;;;5052632;28;20036;-66
2022/12/03 13:09:25;;;;;;;44.53;20.73;;;2.60;82.60;;;;;;5042767;28;20399;-66
2022/12/03 13:11:59;;;;;;;53.53;24.23;;;2.60;82.60;;;;;;5014764;28;20045;-66